Time;durP1;ratioP1;P1;durP2;ratioP2;P2;SDS_P1;SDS_P2;PMS_P1;PMS_P2;Temp;Humidity;BMP_temperature;BMP_pressure;BME280_temperature;BME280_humidity;BME280_pressure;Samples;Min_cycle;Max_cycle;Signal;HPM_P1;HPM_P2
2021/12/26 00:02:00;;;;;;;8.30;6.18;;;7.10;99.90;;;;;;6203267;28;20033;-80
2021/12/26 00:05:00;;;;;;;8.98;6.80;;;6.70;99.90;;;;;;6219612;28;20030;-80
2021/12/26 00:08:01;;;;;;;9.07;6.00;;;;;;;;;;6202807;28;20041;-80
2021/12/26 00:11:03;;;;;;;6.28;5.05;;;7.00;99.90;;;;;;6202493;28;20041;-80
2021/12/26 00:14:05;;;;;;;7.03;5.30;;;7.10;99.90;;;;;;6223532;28;20025;-80
2021/12/26 00:17:06;;;;;;;8.30;6.15;;;;;;;;;;6213513;28;20053;-79
2021/12/26 00:20:08;;;;;;;7.32;5.55;;;7.10;99.90;;;;;;6222646;28;20037;-81
2021/12/26 00:23:08;;;;;;;7.90;5.72;;;7.00;99.90;;;;;;6214870;28;20025;-81
2021/12/26 00:26:09;;;;;;;7.95;5.60;;;;;;;;;;6187025;28;20484;-80
2021/12/26 00:29:10;;;;;;;7.05;4.80;;;7.00;99.90;;;;;;6202819;28;20120;-81
2021/12/26 00:32:11;;;;;;;8.63;6.18;;;;;;;;;;6218983;28;20026;-81
2021/12/26 00:35:12;;;;;;;6.10;5.40;;;6.80;99.90;;;;;;6218935;28;20034;-80
2021/12/26 00:38:13;;;;;;;7.85;5.95;;;;;;;;;;6193776;28;20081;-80
2021/12/26 00:41:14;;;;;;;7.95;5.63;;;7.20;99.90;;;;;;6177406;28;20062;-81
2021/12/26 00:44:15;;;;;;;6.60;5.72;;;;;;;;;;6177741;28;20061;-82
2021/12/26 00:47:15;;;;;;;6.95;5.13;;;6.80;99.90;;;;;;6177436;28;20076;-80
2021/12/26 00:50:19;;;;;;;6.20;4.53;;;6.80;99.90;;;;;;6193928;28;20034;-81
2021/12/26 00:53:20;;;;;;;6.57;5.70;;;6.90;99.90;;;;;;6161716;28;20030;-80
2021/12/26 00:56:20;;;;;;;7.57;5.65;;;6.90;99.90;;;;;;6177264;28;20397;-81
2021/12/26 00:59:21;;;;;;;8.88;5.97;;;7.10;99.90;;;;;;6193323;28;20039;-82
2021/12/26 01:02:22;;;;;;;7.68;5.70;;;6.70;99.90;;;;;;6193973;28;20488;-81
2021/12/26 01:05:23;;;;;;;6.75;5.47;;;;;;;;;;6177185;28;20026;-81
2021/12/26 01:08:29;;;;;;;5.75;4.93;;;6.80;99.90;;;;;;6192588;28;20062;-82
2021/12/26 01:11:46;;;;;;;6.82;5.07;;;6.90;99.90;;;;;;6193355;28;20026;-81
2021/12/26 01:14:52;;;;;;;7.07;4.75;;;7.00;99.90;;;;;;6165179;28;20065;-81
2021/12/26 01:17:56;;;;;;;6.00;5.18;;;;;;;;;;6177834;28;20034;-81
2021/12/26 01:21:05;;;;;;;5.95;4.78;;;7.10;99.90;;;;;;6192945;28;20487;-81
2021/12/26 01:24:08;;;;;;;8.07;5.13;;;6.80;99.90;;;;;;6174838;28;20037;-81
2021/12/26 01:27:08;;;;;;;6.78;4.80;;;6.80;99.90;;;;;;6161117;28;20060;-82
2021/12/26 01:30:09;;;;;;;6.78;5.43;;;;;;;;;;6160549;28;20084;-82
2021/12/26 01:33:11;;;;;;;7.88;5.53;;;7.00;99.90;;;;;;6193215;28;20022;-81
2021/12/26 01:36:11;;;;;;;8.18;5.65;;;6.70;99.90;;;;;;6171275;28;20465;-80
2021/12/26 01:39:12;;;;;;;9.07;6.18;;;6.90;99.90;;;;;;6193029;28;20029;-81
2021/12/26 01:42:13;;;;;;;8.10;5.95;;;;;;;;;;6209871;28;20034;-81
2021/12/26 01:45:14;;;;;;;7.68;5.90;;;;;;;;;;6225655;28;20025;-82
2021/12/26 01:48:15;;;;;;;11.43;5.47;;;6.80;99.90;;;;;;6243282;28;20658;-82
2021/12/26 01:51:16;;;;;;;11.40;6.30;;;6.60;99.90;;;;;;6193386;28;20037;-81
2021/12/26 01:54:28;;;;;;;8.05;6.05;;;6.50;99.90;;;;;;6225857;28;20459;-80
2021/12/26 01:57:28;;;;;;;8.20;5.97;;;6.90;99.90;;;;;;6196037;28;20063;-81
2021/12/26 02:00:29;;;;;;;9.43;6.13;;;;;;;;;;6231724;28;20033;-81
2021/12/26 02:03:30;;;;;;;7.88;6.05;;;6.50;99.90;;;;;;6243235;28;20071;-81
2021/12/26 02:06:31;;;;;;;7.72;5.95;;;;;;;;;;6212431;28;20037;-82
2021/12/26 02:09:31;;;;;;;6.90;5.28;;;6.50;99.90;;;;;;6251968;28;20033;-82
2021/12/26 02:12:32;;;;;;;7.57;5.95;;;;;;;;;;6209330;28;20030;-81
2021/12/26 02:15:33;;;;;;;11.20;7.05;;;6.70;99.90;;;;;;6226037;28;20017;-81
2021/12/26 02:18:34;;;;;;;18.02;7.38;;;;;;;;;;6209306;28;20032;-81
2021/12/26 02:28:06;;;;;;;10.88;8.50;;;;;;;;;;6127345;28;20626;-80
2021/12/26 02:31:07;;;;;;;11.68;8.75;;;;;;;;;;6142699;28;20024;-81
2021/12/26 02:34:07;;;;;;;11.02;8.05;;;6.80;99.90;;;;;;6166057;28;20485;-79
2021/12/26 02:37:08;;;;;;;10.82;7.97;;;;;;;;;;6169962;28;20062;-80
2021/12/26 02:40:09;;;;;;;27.80;9.20;;;6.60;99.90;;;;;;6160161;28;20067;-80
2021/12/26 02:43:12;;;;;;;16.10;8.70;;;;;;;;;;6131057;28;20043;-80
2021/12/26 02:46:13;;;;;;;10.45;7.90;;;6.90;99.90;;;;;;6131201;28;20063;-80
2021/12/26 02:49:14;;;;;;;11.95;8.85;;;;;;;;;;6150994;28;20070;-79
2021/12/26 02:52:15;;;;;;;13.10;7.65;;;;;;;;;;6169486;28;20037;-81
2021/12/26 02:55:17;;;;;;;11.13;7.88;;;6.60;99.90;;;;;;6146671;28;20143;-81
2021/12/26 02:58:18;;;;;;;19.05;8.00;;;6.40;99.90;;;;;;6130679;28;20094;-81
2021/12/26 03:01:21;;;;;;;15.00;8.23;;;6.50;99.90;;;;;;6172768;28;20435;-80
2021/12/26 03:04:21;;;;;;;;;;;6.70;99.90;;;;;;6213183;28;20022;-82
2021/12/26 03:07:22;;;;;;;11.95;7.60;;;;;;;;;;6229270;28;19966;-80
2021/12/26 03:10:25;;;;;;;10.23;7.88;;;6.40;99.90;;;;;;6228988;28;20017;-81
2021/12/26 03:13:26;;;;;;;13.68;8.98;;;6.50;99.90;;;;;;6219662;28;20055;-80
2021/12/26 03:16:27;;;;;;;16.08;7.82;;;;;;;;;;6219302;28;20037;-81
2021/12/26 03:19:36;;;;;;;16.50;8.15;;;6.30;99.90;;;;;;6235643;28;20063;-80
2021/12/26 03:22:37;;;;;;;29.38;9.18;;;6.10;99.90;;;;;;6220403;28;20477;-80
2021/12/26 03:25:38;;;;;;;13.43;8.93;;;;;;;;;;6235921;28;20025;-80
2021/12/26 03:28:38;;;;;;;26.23;8.40;;;6.40;99.90;;;;;;6235786;28;20037;-81
2021/12/26 03:31:41;;;;;;;14.90;8.93;;;;;;;;;;6219124;28;20029;-81
2021/12/26 03:34:46;;;;;;;10.00;7.95;;;6.20;99.90;;;;;;6252291;28;20108;-81
2021/12/26 03:37:46;;;;;;;9.23;7.75;;;6.50;99.90;;;;;;6206140;28;20057;-81
2021/12/26 03:40:47;;;;;;;10.45;8.07;;;6.30;99.90;;;;;;6235583;28;20159;-81
2021/12/26 03:43:48;;;;;;;10.45;8.20;;;6.30;99.90;;;;;;6251718;28;20029;-81
2021/12/26 03:46:48;;;;;;;9.20;7.30;;;6.30;99.90;;;;;;6250266;28;20040;-81
2021/12/26 03:49:50;;;;;;;9.63;7.50;;;6.50;99.90;;;;;;6234869;28;20526;-81
2021/12/26 03:52:51;;;;;;;11.70;7.88;;;6.30;99.90;;;;;;6203024;28;20434;-79
2021/12/26 03:55:51;;;;;;;8.55;7.15;;;6.40;99.90;;;;;;6211581;28;20107;-80
2021/12/26 03:58:52;;;;;;;15.65;8.35;;;6.40;99.90;;;;;;6216867;28;20120;-81
2021/12/26 04:01:56;;;;;;;10.90;8.02;;;6.10;99.90;;;;;;6235325;28;20112;-80
2021/12/26 04:04:57;;;;;;;12.73;7.85;;;6.30;99.90;;;;;;6219100;28;20387;-81
2021/12/26 04:07:57;;;;;;;18.13;7.28;;;6.20;99.90;;;;;;6234465;28;20052;-80
2021/12/26 04:10:58;;;;;;;13.13;7.47;;;6.10;99.90;;;;;;6234705;28;20029;-80
2021/12/26 04:13:58;;;;;;;11.70;7.20;;;5.90;99.90;;;;;;6250601;28;20028;-80
2021/12/26 04:16:59;;;;;;;12.55;6.95;;;6.10;99.90;;;;;;6216005;28;20099;-80
2021/12/26 04:20:00;;;;;;;7.97;6.07;;;7.10;99.90;;;;;;6210692;28;20066;-80
2021/12/26 04:23:00;;;;;;;8.00;6.55;;;6.30;99.90;;;;;;6227241;28;20139;-80
2021/12/26 04:26:01;;;;;;;8.20;6.30;;;6.50;99.90;;;;;;6210845;28;20025;-81
2021/12/26 04:29:02;;;;;;;11.25;6.43;;;8.10;99.90;;;;;;6211146;28;20356;-81
2021/12/26 04:32:03;;;;;;;8.05;6.45;;;6.60;99.90;;;;;;6210527;28;20025;-81
2021/12/26 04:35:04;;;;;;;14.77;6.50;;;6.00;99.90;;;;;;6210794;28;20034;-81
2021/12/26 04:38:04;;;;;;;7.93;6.68;;;5.90;99.90;;;;;;6226651;28;20053;-80
2021/12/26 04:41:05;;;;;;;9.82;6.53;;;6.00;99.90;;;;;;6211085;28;20038;-81
2021/12/26 04:44:06;;;;;;;9.25;6.72;;;6.00;99.90;;;;;;6194174;28;20029;-81
2021/12/26 04:47:07;;;;;;;10.18;6.13;;;6.20;99.90;;;;;;6231087;28;20037;-81
2021/12/26 04:50:11;;;;;;;8.20;6.10;;;5.70;99.90;;;;;;6233720;28;20107;-80
2021/12/26 04:53:12;;;;;;;11.13;6.47;;;5.90;99.90;;;;;;6250584;28;20025;-81
2021/12/26 04:56:13;;;;;;;7.57;6.45;;;;;;;;;;6233667;28;21758;-79
2021/12/26 04:59:14;;;;;;;7.35;5.82;;;;;;;;;;6250084;28;20037;-80
2021/12/26 05:02:15;;;;;;;7.82;5.60;;;;;;;;;;6233877;28;20117;-81
2021/12/26 05:05:16;;;;;;;8.32;6.40;;;6.10;99.90;;;;;;6233459;28;20029;-81
2021/12/26 05:08:16;;;;;;;15.18;6.70;;;5.80;99.90;;;;;;6211043;28;20116;-80
2021/12/26 05:11:17;;;;;;;8.80;6.00;;;5.90;99.90;;;;;;6210228;28;20112;-81
2021/12/26 05:14:18;;;;;;;9.90;6.13;;;6.70;99.90;;;;;;6193776;28;20060;-81
2021/12/26 05:17:19;;;;;;;19.13;6.50;;;5.80;99.90;;;;;;6209798;28;20505;-81
2021/12/26 05:20:19;;;;;;;8.70;6.35;;;6.10;99.90;;;;;;6193726;28;20033;-81
2021/12/26 05:23:20;;;;;;;15.02;6.85;;;6.10;99.90;;;;;;6209734;28;20037;-81
2021/12/26 05:26:20;;;;;;;9.40;6.28;;;5.80;99.90;;;;;;6209881;28;20044;-81
2021/12/26 05:29:21;;;;;;;14.75;6.80;;;6.80;99.90;;;;;;6193452;28;20028;-80
2021/12/26 05:32:22;;;;;;;7.53;6.10;;;5.80;99.90;;;;;;6193243;28;20041;-81
2021/12/26 05:35:22;;;;;;;9.45;5.85;;;5.80;99.90;;;;;;6209662;28;20036;-82
2021/12/26 05:38:26;;;;;;;6.82;5.40;;;;;;;;;;6214670;28;20554;-81
2021/12/26 05:41:26;;;;;;;6.97;5.60;;;5.60;99.90;;;;;;6233140;28;20099;-80
2021/12/26 05:44:27;;;;;;;6.78;5.20;;;5.60;99.90;;;;;;6233354;28;20021;-81
2021/12/26 05:47:28;;;;;;;7.88;6.10;;;;;;;;;;6248988;28;20053;-80
2021/12/26 05:50:29;;;;;;;7.32;5.90;;;5.90;99.90;;;;;;6232969;28;20057;-80
2021/12/26 05:53:30;;;;;;;9.27;5.55;;;;;;;;;;6232747;28;20037;-81
2021/12/26 05:56:31;;;;;;;8.40;6.05;;;;;;;;;;6249818;28;20037;-80
2021/12/26 05:59:32;;;;;;;6.45;5.38;;;;;;;;;;6232778;28;20083;-81
2021/12/26 06:02:32;;;;;;;7.13;5.38;;;5.70;99.90;;;;;;6232703;28;20025;-82
2021/12/26 06:05:33;;;;;;;8.32;6.30;;;;;;;;;;6216477;28;20474;-81
2021/12/26 06:08:34;;;;;;;13.82;6.35;;;5.80;99.90;;;;;;6266619;28;20045;-81
2021/12/26 06:11:35;;;;;;;10.57;6.07;;;;;;;;;;6220558;28;20025;-81
2021/12/26 06:14:35;;;;;;;15.70;5.88;;;5.70;99.90;;;;;;6237497;28;20463;-82
2021/12/26 06:17:36;;;;;;;7.90;5.97;;;6.90;99.90;;;;;;6220865;28;20052;-81
2021/12/26 06:20:37;;;;;;;9.82;5.70;;;5.50;99.90;;;;;;6220638;28;20025;-81
2021/12/26 06:23:37;;;;;;;12.45;6.15;;;5.50;99.90;;;;;;6217636;28;20063;-82
2021/12/26 06:26:38;;;;;;;8.93;5.35;;;5.50;99.90;;;;;;6213555;28;20034;-82
2021/12/26 06:29:38;;;;;;;10.25;6.53;;;5.50;99.90;;;;;;6197554;28;20026;-81
2021/12/26 06:32:39;;;;;;;11.73;6.15;;;5.50;99.90;;;;;;6229569;28;20468;-81
2021/12/26 06:35:40;;;;;;;7.10;5.70;;;5.50;99.90;;;;;;6208616;28;20123;-82
2021/12/26 06:38:41;;;;;;;7.63;5.85;;;5.50;99.90;;;;;;6236506;28;20053;-83
2021/12/26 06:41:41;;;;;;;6.80;4.70;;;5.50;99.90;;;;;;6195464;28;20033;-82
2021/12/26 06:44:42;;;;;;;7.85;5.60;;;5.30;99.90;;;;;;6214627;28;20472;-82
2021/12/26 06:47:46;;;;;;;7.85;5.78;;;;;;;;;;6225256;28;20168;-82
2021/12/26 06:50:47;;;;;;;8.30;5.65;;;;;;;;;;6212231;28;20091;-81
2021/12/26 06:53:47;;;;;;;6.50;5.25;;;5.60;99.90;;;;;;6211306;28;20472;-82
2021/12/26 06:56:49;;;;;;;7.13;5.18;;;;;;;;;;6231266;28;20041;-82
2021/12/26 06:59:49;;;;;;;6.20;4.88;;;5.60;99.90;;;;;;6246236;28;20100;-82
2021/12/26 07:02:50;;;;;;;7.10;5.00;;;5.40;99.90;;;;;;6194715;28;20025;-83
2021/12/26 07:05:50;;;;;;;9.00;5.50;;;5.50;99.90;;;;;;6211180;28;20056;-81
2021/12/26 07:08:51;;;;;;;6.78;4.88;;;5.50;99.90;;;;;;6194802;28;20709;-83
2021/12/26 07:11:51;;;;;;;5.70;4.55;;;5.20;99.90;;;;;;6231998;28;20082;-82
2021/12/26 07:14:52;;;;;;;7.07;5.50;;;5.40;99.90;;;;;;6229276;28;20471;-81
2021/12/26 07:17:53;;;;;;;6.45;4.88;;;5.10;99.90;;;;;;6234308;28;20631;-82
2021/12/26 07:20:53;;;;;;;7.00;5.22;;;5.30;99.90;;;;;;6250007;28;20021;-81
2021/12/26 07:23:54;;;;;;;7.15;5.75;;;5.20;99.90;;;;;;6248918;28;20028;-82
2021/12/26 07:26:54;;;;;;;11.02;4.82;;;5.10;99.90;;;;;;6233390;28;20120;-81
2021/12/26 07:29:58;;;;;;;5.85;4.93;;;;;;;;;;6217795;28;20375;-81
2021/12/26 07:32:59;;;;;;;6.03;4.70;;;5.60;99.90;;;;;;6250942;28;20025;-81
2021/12/26 07:35:59;;;;;;;5.97;4.75;;;5.10;99.90;;;;;;6211105;28;20522;-83
2021/12/26 07:39:00;;;;;;;5.45;4.43;;;5.50;99.90;;;;;;6145552;28;1209908;-81
2021/12/26 07:42:00;;;;;;;6.18;4.43;;;5.10;99.90;;;;;;6203650;28;20034;-81
2021/12/26 07:45:01;;;;;;;5.47;4.10;;;5.40;99.90;;;;;;6187647;28;20038;-81
2021/12/26 07:48:01;;;;;;;5.07;4.13;;;5.20;99.90;;;;;;6187221;28;20045;-81
2021/12/26 07:51:04;;;;;;;4.90;4.40;;;5.30;99.90;;;;;;6208911;28;20468;-82
2021/12/26 07:54:05;;;;;;;6.22;4.18;;;6.60;99.90;;;;;;6227578;28;20033;-79
2021/12/26 07:57:07;;;;;;;5.30;4.45;;;5.90;99.90;;;;;;6226683;28;20049;-80
2021/12/26 08:00:08;;;;;;;6.85;4.90;;;5.50;99.90;;;;;;6226902;28;20560;-80
2021/12/26 08:03:08;;;;;;;5.95;4.30;;;5.50;99.90;;;;;;6226863;28;20040;-79
2021/12/26 08:06:13;;;;;;;5.55;4.43;;;5.80;99.90;;;;;;6226662;28;20033;-81
2021/12/26 08:09:13;;;;;;;4.82;3.90;;;6.10;99.90;;;;;;6217391;28;20402;-80
2021/12/26 08:12:14;;;;;;;4.45;3.90;;;8.00;99.90;;;;;;6219672;28;20031;-80
2021/12/26 08:15:14;;;;;;;3.83;3.40;;;6.10;99.90;;;;;;6219474;28;20105;-81
2021/12/26 08:18:15;;;;;;;7.60;6.22;;;6.20;99.90;;;;;;6203214;28;20436;-81
2021/12/26 08:21:16;;;;;;;6.13;5.15;;;5.70;99.90;;;;;;6203094;28;20477;-80
2021/12/26 08:24:17;;;;;;;5.47;4.60;;;5.80;99.90;;;;;;6219092;28;20056;-82
2021/12/26 08:27:17;;;;;;;6.65;5.68;;;5.80;99.90;;;;;;6202518;28;20072;-80
2021/12/26 08:30:18;;;;;;;10.68;8.75;;;6.10;99.90;;;;;;6202206;28;20814;-80
2021/12/26 08:33:18;;;;;;;7.78;6.53;;;7.50;99.90;;;;;;6186249;28;20124;-81
2021/12/26 08:36:20;;;;;;;7.93;5.35;;;5.70;99.90;;;;;;6197149;28;20109;-81
2021/12/26 08:39:21;;;;;;;6.88;5.47;;;6.20;99.90;;;;;;6227418;28;20029;-81
2021/12/26 08:42:21;;;;;;;7.20;5.10;;;6.20;99.90;;;;;;6226693;28;20033;-81
2021/12/26 08:45:22;;;;;;;6.43;5.05;;;5.90;99.90;;;;;;6225132;28;20490;-84
2021/12/26 08:48:24;;;;;;;6.68;5.00;;;6.70;99.90;;;;;;6233356;28;20080;-81
2021/12/26 08:51:24;;;;;;;8.13;7.33;;;7.00;99.90;;;;;;6199960;28;20029;-80
2021/12/26 08:54:28;;;;;;;6.13;5.40;;;6.10;99.90;;;;;;6210574;28;20037;-81
2021/12/26 08:57:30;;;;;;;5.50;5.00;;;6.50;99.90;;;;;;6227248;28;20088;-80
2021/12/26 09:00:32;;;;;;;58.42;52.33;;;6.10;99.90;;;;;;6194567;28;20041;-82
2021/12/26 09:03:37;;;;;;;33.40;29.90;;;;;;;;;;6210567;28;20120;-83
2021/12/26 09:06:38;;;;;;;11.18;10.07;;;6.40;99.90;;;;;;6226968;28;20496;-81
2021/12/26 09:09:38;;;;;;;6.95;6.15;;;6.70;99.90;;;;;;6208602;28;20022;-81
2021/12/26 09:12:39;;;;;;;8.32;7.22;;;6.70;99.90;;;;;;6211022;28;20033;-82
2021/12/26 09:15:40;;;;;;;9.43;7.97;;;6.80;99.90;;;;;;6192492;28;20369;-80
2021/12/26 09:18:41;;;;;;;7.35;6.43;;;;;;;;;;6208818;28;20450;-79
2021/12/26 09:21:42;;;;;;;6.32;5.45;;;7.00;99.90;;;;;;6213633;28;20025;-81
2021/12/26 09:24:43;;;;;;;5.78;5.15;;;7.40;99.90;;;;;;6209606;28;20033;-79
2021/12/26 09:27:44;;;;;;;7.07;6.38;;;7.10;99.90;;;;;;6192401;28;20148;-81
2021/12/26 09:30:44;;;;;;;6.35;5.65;;;7.60;99.90;;;;;;6209713;28;20029;-83
2021/12/26 09:33:45;;;;;;;9.95;7.47;;;7.50;99.90;;;;;;6209436;28;20034;-81
2021/12/26 09:36:45;;;;;;;10.32;9.32;;;7.70;99.90;;;;;;6207858;28;20412;-81
2021/12/26 09:39:46;;;;;;;9.82;8.27;;;8.00;99.90;;;;;;6191541;28;20038;-79
2021/12/26 09:42:47;;;;;;;8.45;7.07;;;8.30;99.90;;;;;;6208945;28;20499;-81
2021/12/26 09:45:47;;;;;;;12.10;9.30;;;8.80;99.90;;;;;;6196195;28;20029;-80
2021/12/26 09:48:48;;;;;;;10.98;7.65;;;8.90;99.90;;;;;;6225577;28;20037;-79
2021/12/26 09:51:50;;;;;;;7.38;6.40;;;9.50;99.90;;;;;;6230422;28;20030;-79
2021/12/26 09:54:50;;;;;;;7.17;6.10;;;8.80;99.90;;;;;;6230202;28;20047;-78
2021/12/26 09:57:51;;;;;;;7.28;5.90;;;;;;;;;;6233070;28;20272;-82
2021/12/26 10:00:52;;;;;;;9.70;6.55;;;8.70;99.90;;;;;;6234324;28;20060;-82
2021/12/26 10:03:53;;;;;;;6.82;6.13;;;;;;;;;;6213305;28;20064;-84
2021/12/26 10:07:00;;;;;;;10.73;7.75;;;8.50;99.90;;;;;;6229873;28;20374;-80
2021/12/26 10:10:04;;;;;;;12.07;10.75;;;8.70;99.90;;;;;;6230296;28;20042;-81
2021/12/26 10:13:05;;;;;;;15.75;11.30;;;8.80;99.90;;;;;;6197873;28;20029;-83
2021/12/26 10:16:05;;;;;;;16.25;10.90;;;9.10;99.90;;;;;;6229421;28;20109;-81
2021/12/26 10:19:06;;;;;;;11.45;8.70;;;9.10;99.90;;;;;;6212403;28;20435;-82
2021/12/26 10:22:07;;;;;;;12.13;8.88;;;8.90;99.90;;;;;;6226989;28;20039;-82
2021/12/26 10:25:14;;;;;;;24.15;18.13;;;9.40;99.90;;;;;;6227614;28;20060;-84
2021/12/26 10:28:15;;;;;;;24.20;21.70;;;9.30;99.90;;;;;;6229595;28;20062;-83
2021/12/26 10:31:16;;;;;;;13.25;11.75;;;9.80;99.90;;;;;;6213194;28;20476;-84
2021/12/26 10:38:38;;;;;;;17.30;13.00;;;9.00;99.90;;;;;;6076027;29;20151;-80
2021/12/26 10:42:05;;;;;;;11.05;9.05;;;9.30;99.90;;;;;;6092698;29;20041;-85
2021/12/26 10:45:11;;;;;;;26.33;17.90;;;8.80;99.90;;;;;;6077255;29;20049;-83
2021/12/26 10:48:11;;;;;;;25.25;15.38;;;8.80;99.90;;;;;;6066686;29;20108;-87
2021/12/26 10:51:32;;;;;;;15.30;11.63;;;8.80;99.90;;;;;;6098645;29;20037;-82
2021/12/26 10:54:32;;;;;;;8.68;6.35;;;8.70;99.90;;;;;;6079672;29;20119;-81
2021/12/26 10:58:15;;;;;;;5.70;4.97;;;8.80;99.90;;;;;;6066043;29;20096;-84
2021/12/26 11:01:15;;;;;;;7.70;5.80;;;8.80;99.90;;;;;;6059656;29;20128;-81
2021/12/26 11:04:16;;;;;;;6.32;5.57;;;8.90;99.90;;;;;;6086752;29;20394;-81
2021/12/26 11:07:20;;;;;;;7.22;5.60;;;8.90;99.90;;;;;;6066757;29;20081;-81
2021/12/26 11:10:37;;;;;;;15.25;9.00;;;8.80;99.90;;;;;;6067626;29;20043;-83
2021/12/26 11:13:37;;;;;;;24.33;11.20;;;8.80;99.90;;;;;;6139126;28;20033;-85
2021/12/26 11:16:40;;;;;;;10.93;6.57;;;9.00;99.90;;;;;;6196343;28;20037;-82
2021/12/26 11:19:42;;;;;;;9.43;6.35;;;9.00;99.90;;;;;;6220967;28;20037;-82
2021/12/26 11:22:43;;;;;;;9.52;6.43;;;;;;;;;;6212711;28;20041;-82
2021/12/26 11:25:46;;;;;;;12.90;8.50;;;9.30;99.90;;;;;;6237433;28;20147;-85
2021/12/26 11:28:53;;;;;;;24.92;15.07;;;9.40;99.90;;;;;;6249282;28;20067;-84
2021/12/26 11:31:55;;;;;;;8.75;7.60;;;9.60;99.90;;;;;;6240587;28;20562;-84
2021/12/26 11:34:56;;;;;;;7.30;6.07;;;9.80;99.90;;;;;;6214138;28;20033;-82
2021/12/26 11:37:57;;;;;;;6.78;5.47;;;9.70;99.90;;;;;;6207090;28;20072;-83
2021/12/26 11:41:15;;;;;;;6.80;6.10;;;9.80;99.90;;;;;;6195234;28;20036;-81
2021/12/26 11:44:20;;;;;;;8.68;6.40;;;10.10;99.90;;;;;;6203495;28;20075;-82
2021/12/26 11:47:40;;;;;;;6.47;5.78;;;10.20;99.90;;;;;;6244904;28;20091;-82
2021/12/26 11:51:22;;;;;;;6.78;6.07;;;10.20;99.90;;;;;;6228731;28;20112;-82
2021/12/26 11:54:44;;;;;;;7.53;6.70;;;9.80;99.90;;;;;;6228641;28;20403;-82
2021/12/26 11:58:25;;;;;;;7.90;6.85;;;9.80;99.90;;;;;;6247365;28;20053;-81
2021/12/26 12:01:25;;;;;;;8.32;7.00;;;9.90;99.90;;;;;;6238121;28;20060;-81
2021/12/26 12:04:26;;;;;;;10.05;6.70;;;10.00;99.90;;;;;;6211490;28;20472;-83
2021/12/26 12:07:42;;;;;;;9.55;7.63;;;10.00;99.90;;;;;;6226691;28;20692;-81
2021/12/26 12:10:43;;;;;;;8.25;7.20;;;;;;;;;;6215234;28;20052;-81
2021/12/26 12:13:53;;;;;;;8.13;7.32;;;9.70;99.90;;;;;;6248631;28;20026;-82
2021/12/26 12:17:12;;;;;;;9.63;7.47;;;9.80;99.90;;;;;;6200304;28;20071;-80
2021/12/26 12:20:22;;;;;;;9.73;7.38;;;9.80;99.90;;;;;;6215843;28;20036;-80
2021/12/26 12:23:23;;;;;;;8.20;6.95;;;9.60;99.90;;;;;;6210783;28;20491;-81
2021/12/26 12:26:39;;;;;;;11.13;6.78;;;9.80;99.90;;;;;;6244280;28;20038;-81
2021/12/26 12:29:39;;;;;;;8.85;7.95;;;9.70;99.90;;;;;;6244473;28;20434;-82
2021/12/26 12:32:40;;;;;;;9.70;7.40;;;9.60;99.90;;;;;;6244773;28;20116;-80
2021/12/26 12:36:05;;;;;;;10.23;8.93;;;9.60;99.90;;;;;;6232910;28;20053;-81
2021/12/26 12:39:13;;;;;;;9.75;8.10;;;9.80;99.90;;;;;;6189789;28;20547;-81
2021/12/26 12:42:16;;;;;;;9.70;8.70;;;9.60;99.90;;;;;;6225738;28;20493;-80
2021/12/26 12:45:16;;;;;;;9.40;8.40;;;9.60;99.90;;;;;;6224950;28;20503;-80
2021/12/26 12:48:40;;;;;;;10.50;8.48;;;9.50;99.90;;;;;;6225714;28;20049;-79
2021/12/26 12:51:43;;;;;;;10.40;8.25;;;9.40;99.90;;;;;;6228936;28;20036;-80
2021/12/26 12:54:48;;;;;;;9.60;8.48;;;9.60;99.90;;;;;;6210578;28;20430;-79
2021/12/26 12:57:51;;;;;;;11.88;9.35;;;9.30;99.90;;;;;;6235479;28;20487;-82
2021/12/26 13:00:51;;;;;;;;;;;9.20;99.90;;;;;;6217906;28;20041;-81
2021/12/26 13:04:01;;;;;;;10.05;8.40;;;9.10;99.90;;;;;;6244316;28;19937;-79
2021/12/26 13:07:03;;;;;;;9.40;8.00;;;8.90;99.90;;;;;;6225929;28;20502;-79
2021/12/26 13:10:10;;;;;;;11.32;8.05;;;8.80;99.90;;;;;;6213818;28;20030;-80
2021/12/26 13:13:15;;;;;;;10.30;9.23;;;8.80;99.90;;;;;;6224451;28;20072;-79
2021/12/26 13:16:16;;;;;;;9.70;8.70;;;9.30;99.90;;;;;;6226483;28;20046;-80
2021/12/26 13:19:17;;;;;;;16.58;11.85;;;8.80;99.90;;;;;;6209946;28;20056;-81
2021/12/26 13:22:17;;;;;;;12.30;9.13;;;8.60;99.90;;;;;;6219737;28;20573;-81
2021/12/26 13:25:34;;;;;;;9.20;8.30;;;8.40;99.90;;;;;;6247785;28;20034;-80
2021/12/26 13:28:36;;;;;;;11.50;8.55;;;8.30;99.90;;;;;;6223808;28;20072;-79
2021/12/26 13:31:36;;;;;;;14.73;10.85;;;8.60;99.90;;;;;;6208354;28;20029;-79
2021/12/26 13:34:37;;;;;;;9.73;8.65;;;8.50;99.90;;;;;;6192147;28;20048;-79
2021/12/26 13:37:38;;;;;;;10.30;7.90;;;8.50;99.90;;;;;;6228690;28;20059;-79
2021/12/26 13:40:50;;;;;;;8.43;7.53;;;8.60;99.90;;;;;;6209184;28;20434;-82
2021/12/26 13:43:50;;;;;;;8.30;7.13;;;8.60;99.90;;;;;;6224111;28;20095;-80
2021/12/26 13:47:00;;;;;;;8.88;7.85;;;8.90;99.90;;;;;;6257877;28;20125;-79
2021/12/26 13:50:11;;;;;;;10.80;7.93;;;8.60;99.90;;;;;;6220920;28;20083;-79
2021/12/26 13:53:12;;;;;;;12.68;8.95;;;8.70;99.90;;;;;;6214682;28;20464;-80
2021/12/26 13:56:12;;;;;;;9.60;7.05;;;9.00;99.90;;;;;;6216305;28;20048;-80
2021/12/26 13:59:29;;;;;;;11.57;10.00;;;8.80;99.90;;;;;;6207940;28;20065;-79
2021/12/26 14:02:32;;;;;;;15.93;10.20;;;8.90;99.90;;;;;;6226877;28;20036;-80
2021/12/26 14:05:36;;;;;;;9.27;8.00;;;8.60;99.90;;;;;;6196167;28;20080;-80
2021/12/26 14:08:37;;;;;;;7.70;6.90;;;8.60;99.90;;;;;;6224161;28;20049;-78
2021/12/26 14:11:38;;;;;;;9.50;7.70;;;9.00;99.90;;;;;;6225157;28;20040;-79
2021/12/26 14:14:39;;;;;;;9.43;8.38;;;8.70;99.90;;;;;;6243365;28;20480;-79
2021/12/26 14:18:16;;;;;;;8.87;6.57;;;9.50;99.90;;;;;;6225460;28;20112;-79
2021/12/26 14:21:18;;;;;;;6.35;5.65;;;8.80;99.90;;;;;;6142577;29;20035;-79
2021/12/26 14:24:20;;;;;;;6.00;5.40;;;8.90;99.90;;;;;;6139537;29;20066;-79
2021/12/26 14:27:21;;;;;;;7.88;6.03;;;8.90;99.90;;;;;;6125791;29;20728;-80
2021/12/26 14:30:22;;;;;;;6.15;5.10;;;9.00;99.90;;;;;;6124409;29;20035;-80
2021/12/26 14:33:30;;;;;;;7.38;6.57;;;8.90;99.90;;;;;;6144610;29;20084;-80
2021/12/26 14:36:50;;;;;;;6.68;5.97;;;8.90;99.90;;;;;;6115133;29;20067;-80
2021/12/26 14:39:54;;;;;;;5.45;4.95;;;9.00;99.90;;;;;;6105793;29;20219;-80
2021/12/26 14:42:55;;;;;;;11.32;8.95;;;9.00;99.90;;;;;;6107148;29;20046;-80
2021/12/26 14:46:01;;;;;;;5.65;4.93;;;8.90;99.90;;;;;;6105980;29;20031;-82
2021/12/26 14:49:12;;;;;;;5.63;5.03;;;9.20;99.90;;;;;;6096560;29;20102;-81
2021/12/26 14:52:14;;;;;;;5.45;4.18;;;9.60;99.90;;;;;;6101425;29;20463;-77
2021/12/26 14:55:16;;;;;;;3.85;3.40;;;9.00;99.90;;;;;;6098621;29;20032;-82
2021/12/26 14:58:18;;;;;;;5.05;3.72;;;;;;;;;;6184206;28;20070;-80
2021/12/26 15:01:24;;;;;;;6.15;4.13;;;9.00;99.90;;;;;;6184197;28;20025;-78
2021/12/26 15:04:29;;;;;;;4.28;3.55;;;8.90;99.90;;;;;;6180770;28;20042;-82
2021/12/26 15:07:29;;;;;;;5.30;3.58;;;8.70;99.90;;;;;;6199074;28;20492;-78
2021/12/26 15:10:38;;;;;;;6.90;4.55;;;9.20;99.90;;;;;;6184311;28;20034;-80
2021/12/26 15:13:39;;;;;;;3.65;3.28;;;8.70;99.90;;;;;;6194747;28;20034;-78
2021/12/26 15:16:41;;;;;;;4.90;3.67;;;8.70;99.90;;;;;;6204439;28;20026;-80
2021/12/26 15:19:42;;;;;;;5.40;4.13;;;8.50;99.90;;;;;;6199489;28;20273;-80
2021/12/26 15:22:45;;;;;;;12.68;10.55;;;8.50;99.90;;;;;;6203762;28;20054;-80
2021/12/26 15:25:57;;;;;;;4.75;4.15;;;8.50;99.90;;;;;;6196825;28;20034;-81
2021/12/26 15:29:01;;;;;;;3.75;3.15;;;9.60;99.90;;;;;;6194542;28;20038;-84
2021/12/26 15:32:10;;;;;;;4.35;3.35;;;8.40;99.90;;;;;;6197670;28;20527;-81
2021/12/26 15:35:11;;;;;;;3.72;3.13;;;8.80;99.90;;;;;;6199961;28;20486;-83
2021/12/26 15:38:11;;;;;;;3.65;3.22;;;8.40;99.90;;;;;;6218637;28;20053;-83
2021/12/26 15:41:38;;;;;;;10.30;3.50;;;8.50;99.90;;;;;;6225053;28;20032;-87
2021/12/26 15:44:39;;;;;;;3.78;2.88;;;8.40;99.90;;;;;;6232436;28;20033;-81
2021/12/26 15:47:42;;;;;;;4.38;3.58;;;8.40;99.90;;;;;;6227131;28;20037;-82
2021/12/26 15:50:42;;;;;;;5.60;4.47;;;8.30;99.90;;;;;;6202465;28;20056;-81
2021/12/26 15:53:43;;;;;;;4.40;3.20;;;;;;;;;;6204421;28;20152;-82
2021/12/26 15:56:44;;;;;;;3.95;2.88;;;8.40;99.90;;;;;;6203464;28;20121;-85
2021/12/26 15:59:45;;;;;;;3.80;3.03;;;8.30;99.90;;;;;;6186627;28;20075;-84
2021/12/26 16:02:58;;;;;;;3.50;3.10;;;8.30;99.90;;;;;;6218940;28;20483;-84
2021/12/26 16:05:58;;;;;;;3.55;2.90;;;8.30;99.90;;;;;;6204081;28;20080;-85
2021/12/26 16:09:05;;;;;;;4.72;3.88;;;8.30;99.90;;;;;;6191058;28;20135;-85
2021/12/26 16:12:09;;;;;;;6.60;5.20;;;8.20;99.90;;;;;;6190565;28;20118;-84
2021/12/26 16:15:10;;;;;;;9.02;6.43;;;8.30;99.90;;;;;;6205658;28;20063;-78
2021/12/26 16:18:11;;;;;;;3.63;3.10;;;8.30;99.90;;;;;;6202268;28;20034;-81
2021/12/26 16:21:13;;;;;;;5.82;3.22;;;8.30;99.90;;;;;;6208027;28;20030;-84
2021/12/26 16:24:14;;;;;;;8.25;5.30;;;;;;;;;;6224965;28;20075;-81
2021/12/26 16:27:17;;;;;;;6.35;4.45;;;8.10;99.90;;;;;;6206812;28;20477;-80
2021/12/26 16:30:19;;;;;;;7.28;5.88;;;8.10;99.90;;;;;;6205088;28;20026;-79